APGPHILLIPS AAF
METARs for airports near APG, sorted by distance:
N 0 nm 44' KAPG 122034Z VRB05KT 7SM -RA SCT030 OVC050 26/22 A3014
SW 14 nm 21' KMTN 142155Z 12010KT 10SM CLR 31/23 A2997
NE 28 nm 79' KILG 142246Z 12005KT 10SM CLR 29/23 A2996
SW 29 nm 143' KBWI 142154Z 17006KT 10SM FEW065 FEW250 34/22 A2994
NE 33 nm 660' KMQS 142235Z 00000KT 10SM CLR 29/24 A2999
SW 35 nm 150' KFME 142229Z 19003KT 10SM CLR 31/22 A2997
SE 38 nm 28' KDOV 142155Z 20014KT 10SM FEW170 33/21 A2994
W 39 nm 789' KDMW 142225Z 23006KT 10SM CLR 37/16 A2997
N 39 nm 402' KLNS 142153Z 14010KT 10SM FEW075 30/22 A2996
S 39 nm 72' KESN 142245Z 17006KT 10SM CLR 31/23 A2997
NE 41 nm 464' KOQN 142235Z 00000KT 10SM SCT065 27/23 A2999
NW 42 nm 494' KTHV 142153Z 14007KT 10SM FEW070 34/20 A2995
SW 45 nm 48' KCGS 142225Z 15006KT 10SM CLR 33/23 A2995
NE 49 nm 35' KPHL 142154Z 00000KT 10SM FEW028 BKN050 BKN250 28/24 A2997
W 49 nm 538' KGAI 142156Z VRB03KT 3SM BR OVC070 A2997
SW 51 nm 279' KADW 142155Z 13010KT 10SM CLR 31/21 A2993
E 51 nm 84' KMIV 142154Z VRB05KT 10SM CLR 28/21 A2997
NW 51 nm 310' KMDT 142156Z 25003KT 10SM SCT045 34/21 A2993
NE 54 nm 308' KPTW 122254Z 00000KT 9SM -RA FEW035 BKN090 OVC120 26/22 A3018
SW 54 nm 14' KDCA 142152Z 20007KT 10SM FEW080 FEW250 37/17 A2993
NW 55 nm 346' KCXY 142156Z VRB03KT 10SM CLR 36/15 A2993
N 55 nm 343' KRDG 142154Z 14007KT 10SM CLR 31/22 A2995
S 55 nm 19' KCGE 142225Z 16006KT 10SM FEW055 31/23 A2997
W 56 nm 308' KFDK 142247Z 18005KT 10SM CLR 36/17 A2994
NE 58 nm 301' KLOM 142235Z 00000KT 10SM CLR 28/23 A2998
SE 60 nm 53' KGED 142154Z 18007KT 10SM CLR 31/23 A2998
N 61 nm 487' KMUI 142155Z 00000KT 10SM CLR 34/15 A2993
SE 64 nm 21' KWWD 142156Z 17010KT 10SM CLR 28/22 A2999
NE 65 nm 119' KPNE 142154Z 00000KT 10SM CLR 29/19 A2997
SW 65 nm 73' KDAA 142155Z 18005KT 10SM CLR 36/17 A2992
NE 67 nm 52' KVAY 142154Z 00000KT 10SM CLR 27/22 A2996
SW 67 nm 312' KIAD 142152Z 21010KT 10SM FEW090 FEW140 35/18 A2995
NE 68 nm 525' KUKT 142235Z 14005KT 10SM CLR 28/22 A2998
NE 68 nm 567' KCKZ 142235Z 00000KT 10SM CLR 28/22 A2999
W 68 nm 389' KJYO 142235Z 21007KT 190V250 10SM CLR 36/21 A2996
NE 70 nm 393' KDYL 142154Z 00000KT 10SM FEW090 28/21 A2997
S 71 nm 38' KNHK 142152Z 13007KT 10SM SCT050 BKN240 33/25 A2995
NE 73 nm 399' KXLL 142235Z 19008KT 10SM CLR 29/22 A2997
W 73 nm 703' KHGR 142153Z 17006KT 10SM CLR 36/18 A2994
E 73 nm 74' KACY 142154Z 17006KT 10SM CLR 28/21 A2999
SE 74 nm 52' KSBY 142154Z 15007KT 10SM CLR 30/23 A2998
N 75 nm 1729' KZER 142235Z 00000KT 10SM CLR 29/17 A3004
SW 77 nm 192' KHEF 142156Z 21007KT 10SM CLR 35/19 A2996
SW 78 nm 10' KNYG 142156Z 5SM CLR 36/21 A2995
NE 78 nm 393' KABE 142151Z 19011KT 10SM CLR 30/19 A2996
NE 79 nm 212' KTTN 142153Z 00000KT 10SM CLR 28/20 A2996
NE 79 nm 140' KWRI 142155Z 15004KT 10SM CLR 28/18 A2996
W 84 nm 564' KMRB 142153Z 24007KT 10SM CLR 36/12 A2993
SE 84 nm 15' KOXB 142053Z 21005KT 10SM CLR 28/24 A3001
N 87 nm 463' KSEG 142153Z 35003KT 10SM CLR 34/17 A2994
TAFs for airports near APG, sorted by distance:
SW 14 nm 21' KMTN KMTN 142001Z 1420/1518 15012G20KT P6SM FEW250
  FM150000 20005KT P6SM FEW250
  FM150400 17005KT P6SM FEW250
  FM151600 21005KT P6SM FEW200
NE 28 nm 79' KILG TAF KILG 141720Z 1418/1518 16008KT P6SM SCT040
  TEMPO 1418/1421 VRB20G30KT 3SM TSRA BKN040CB
  FM150100 18005KT P6SM FEW100
  FM151500 24006KT P6SM FEW060
SW 29 nm 143' KBWI TAF
  AMD KBWI 142102Z 1421/1524 18009G15KT P6SM VCTS SCT060CB SCT250
  FM142300 20004KT P6SM FEW200
  FM150500 17004KT P6SM FEW250
  FM151600 25005KT P6SM FEW200
SE 38 nm 28' KDOV TAF KDOV 141600Z 1416/1522 18006KT 9999 SCT095 QNH3005INS
  BECMG 1417/1418 22006KT 9999 BKN100 QNH2997INS
  TEMPO 1418/1422 9000 -SHRA
  BECMG 1502/1503 23009KT 9999 SCT080 QNH2993INS TX33/1420Z TN24/1510Z
N 39 nm 402' KLNS KLNS 142127Z 1421/1518 16006KT P6SM SCT070
  FM150200 15003KT 6SM BR SCT120
  FM150800 VRB03KT 4SM BR BKN250
  FM151300 28007KT P6SM SCT250
NE 49 nm 35' KPHL TAF
  AMD KPHL 142052Z 1421/1524 VRB20G30KT 6SM -TSRA BKN050CB
  FM142115 19010KT P6SM SCT060
  FM150200 20007KT P6SM FEW100
  FM151400 26008KT P6SM FEW070
SW 51 nm 279' KADW TAF
  AMD KADW 141910Z 1419/1523 27012KT 9999 VCTS SCT050CB QNH2997INS
  TEMPO 1419/1421 29012G18KT 8000 -TSRA BKN050CB
  BECMG 1420/1421 22006KT 9999 NSW SCT050 QNH2994INS
  BECMG 1500/1501 17006KT 9999 FEW070 QNH2992INS
  BECMG 1506/1507 26006KT 9999 SCT060 SCT250 QNH2986INS
  BECMG 1518/1519 23012KT 9999 -SHRA VCTS BKN040CB QNH2983INS TX38/1419Z TN23/1509Z
E 51 nm 84' KMIV TAF KMIV 141720Z 1418/1518 20008KT P6SM SCT040
  FM142300 VRB02KT P6SM SCT100
  FM151500 24006KT P6SM FEW050
NW 51 nm 310' KMDT KMDT 142127Z 1421/1518 27005KT P6SM SCT040
  FM150000 15003KT 6SM BR SCT120
  FM150800 VRB03KT 4SM BR BKN250
  FM151300 28007KT P6SM SCT250
SW 54 nm 14' KDCA KDCA 142102Z 1421/1524 21008G16KT P6SM VCTS SCT060CB SCT250
  FM142200 08008G16KT P6SM FEW200
  FM150500 17005KT P6SM FEW200
  FM151600 26005KT P6SM FEW200
N 55 nm 343' KRDG TAF KRDG 141720Z 1418/1518 24005KT P6SM SCT040
  TEMPO 1418/1419 3SM TSRA BKN030CB
  FM142300 VRB03KT P6SM FEW100
  FM151500 26007KT P6SM FEW070
N 61 nm 487' KMUI TAF KMUI 121900Z 1219/1401 VRB06KT 8000 -SHRA SCT050 BKN070 QNH3014INS
  BECMG 1301/1302 VRB06KT 8000 -SHRA BKN025 QNH3017INS
  BECMG 1303/1304 VRB06KT 4800 -SHRA BKN010 OVC050 QNH3014INS
  TEMPO 1304/1306 22015G25KT 3200 -TSRA BKN006CB OVC050
  BECMG 1306/1307 VRB06KT 8000 BR OVC006 QNH3016INS
  BECMG 1313/1314 VRB06KT 8000 BR OVC050 QNH3009INS TX26/1219Z TN20/1311Z
NE 65 nm 119' KPNE KPNE 142059Z 1421/1518 VRB12G20KT P6SM VCTS BKN050CB
  FM142115 14008KT P6SM SCT060
  FM150100 VRB03KT P6SM FEW100
  FM151500 24005KT P6SM SCT060
SW 65 nm 73' KDAA TAF KDAA 121200Z 1212/1318 VRB05KT 9999 VCSH SCT030 BKN060 OVC100 QNH2996INS
  BECMG 1212/1213 03006KT 9000 -SHRA FEW015 BKN030 OVC070 QNH3000INS
  BECMG 1213/1214 04007KT 8000 -SHRA VCTS SCT015CB OVC030 QNH3011INS
  TEMPO 1214/1301 VRB12G20KT 4800 TSRA BR SCT008 OVC015CB
  BECMG 1302/1303 VRB06KT 9000 -RA OVC010 QNH3010INS
  BECMG 1306/1307 VRB05KT 4800 -RA BR OVC008 QNH3011INS
  BECMG 1312/1313 16007KT 8000 -SHRA VCTS SCT009 BKN015CB OVC030 QNH3012INS TX27/1220Z TN24/1310Z
SW 67 nm 312' KIAD KIAD 142102Z 1421/1524 23009KT P6SM FEW250
  FM142300 21005KT P6SM FEW250
  FM150300 18004KT P6SM FEW250
  FM151600 26005KT P6SM FEW250
S 71 nm 38' KNHK TAF KNHK 1415/1515 VRB06KT 9999 FEW030 FEW100 QNH2995INS
  FM141700 15008KT 9999 VCTS FEW040CB SCT060 SCT070 QNH2993INS
  BECMG 1504/1506 23008KT 9999 NSW FEW060 FEW080 QNH2989INS TX32/1418Z TN26/1509Z FN00268
E 73 nm 74' KACY TAF KACY 141720Z 1418/1518 16010KT P6SM SCT050
  FM150100 19006KT P6SM FEW010 SCT100
  FM150900 VRB03KT 5SM BR FEW100
  FM151500 22006KT P6SM FEW050
SE 74 nm 52' KSBY KSBY 141722Z 1418/1518 17008KT P6SM SCT060
  FM142300 17003KT P6SM SKC
  FM151400 24007KT P6SM SKC
SW 78 nm 10' KNYG TAF KNYG 1321/1421 VRB06KT 9999 SKC QNH3005INS
  FM140600 VRB06KT 9999 SCT200 QNH2995INS LAST NO
  AMDS AFT 1321 NEXT 1509 AUTOMATED SENSOR METWATCH 1321 TIL 1511 T32/1321Z T22/1411Z
NE 78 nm 393' KABE TAF KABE 141720Z 1418/1518 VRB05KT P6SM SCT060
  FM142300 VRB02KT P6SM FEW100
  FM151500 26007KT P6SM FEW070
NE 79 nm 212' KTTN TAF KTTN 141720Z 1418/1518 24006KT P6SM SCT050
  TEMPO 1418/1421 VRB20G30KT 3SM -TSRA BKN050CB
  FM150100 VRB03KT P6SM FEW100
  FM151500 24005KT P6SM SCT060
NE 79 nm 140' KWRI TAF
  AMD KWRI 142238Z 1422/1524 22012G18KT 9999 FEW040 SCT200 QNH2994INS
  BECMG 1501/1502 20008KT 9999 NSW SCT035 QNH2990INS
  BECMG 1513/1514 24010G18KT 9999 FEW040 QNH2990INS TX30/1422Z TN23/1510Z
W 84 nm 564' KMRB KMRB 141727Z 1418/1518 25006KT P6SM FEW250
  FM142300 21005KT P6SM FEW250
  FM150300 17004KT P6SM FEW250
  FM151000 23005KT P6SM FEW200
  FM151400 28004KT P6SM FEW200

Shortcut to this page: http://wxbay.com.

Data may contain errors.